sensor_id;sensor_type;location;lat;lon;timestamp;pressure;altitude;pressure_sealevel;temperature;humidity
44138;BME280;29800;55.942;37.314;2023-05-21T00:01:22;100133.22;;;12.36;72.34
44138;BME280;29800;55.942;37.314;2023-05-21T00:03:50;100121.13;;;12.31;72.19
44138;BME280;29800;55.942;37.314;2023-05-21T00:06:16;100121.13;;;12.31;72.30
44138;BME280;29800;55.942;37.314;2023-05-21T00:08:45;100124.94;;;12.30;72.51
44138;BME280;29800;55.942;37.314;2023-05-21T00:11:11;100122.75;;;12.32;72.71
44138;BME280;29800;55.942;37.314;2023-05-21T00:13:37;100123.25;;;12.29;72.84
44138;BME280;29800;55.942;37.314;2023-05-21T00:16:04;100112.88;;;12.31;72.99
44138;BME280;29800;55.942;37.314;2023-05-21T00:18:30;100117.50;;;12.31;72.83
44138;BME280;29800;55.942;37.314;2023-05-21T00:20:57;100120.59;;;12.35;73.03
44138;BME280;29800;55.942;37.314;2023-05-21T00:23:24;100116.44;;;12.32;73.04
44138;BME280;29800;55.942;37.314;2023-05-21T00:25:51;100121.94;;;12.32;73.04
44138;BME280;29800;55.942;37.314;2023-05-21T00:28:18;100118.88;;;12.28;73.64
44138;BME280;29800;55.942;37.314;2023-05-21T00:30:44;100117.44;;;12.26;73.82
44138;BME280;29800;55.942;37.314;2023-05-21T00:33:12;100114.13;;;12.24;73.79
44138;BME280;29800;55.942;37.314;2023-05-21T00:35:38;100113.63;;;12.27;73.82
44138;BME280;29800;55.942;37.314;2023-05-21T00:38:05;100109.47;;;12.24;73.83
44138;BME280;29800;55.942;37.314;2023-05-21T00:40:33;100113.31;;;12.23;73.98
44138;BME280;29800;55.942;37.314;2023-05-21T00:42:59;100108.91;;;12.22;74.20
44138;BME280;29800;55.942;37.314;2023-05-21T00:45:25;100107.81;;;12.23;74.22
44138;BME280;29800;55.942;37.314;2023-05-21T00:47:52;100109.97;;;12.21;74.05
44138;BME280;29800;55.942;37.314;2023-05-21T00:50:25;100106.72;;;12.24;74.50
44138;BME280;29800;55.942;37.314;2023-05-21T00:52:51;100106.16;;;12.22;74.30
44138;BME280;29800;55.942;37.314;2023-05-21T00:55:18;100102.34;;;12.23;74.32
44138;BME280;29800;55.942;37.314;2023-05-21T00:57:44;100106.97;;;12.23;74.00
44138;BME280;29800;55.942;37.314;2023-05-21T01:00:12;100105.31;;;12.22;74.18
44138;BME280;29800;55.942;37.314;2023-05-21T01:02:39;100111.22;;;12.30;74.09
44138;BME280;29800;55.942;37.314;2023-05-21T01:05:06;100108.97;;;12.27;74.42
44138;BME280;29800;55.942;37.314;2023-05-21T01:07:33;100116.63;;;12.25;74.28
44138;BME280;29800;55.942;37.314;2023-05-21T01:10:05;100114.13;;;12.24;74.24
44138;BME280;29800;55.942;37.314;2023-05-21T01:12:33;100113.56;;;12.22;74.61
44138;BME280;29800;55.942;37.314;2023-05-21T01:15:01;100104.47;;;12.21;74.85
44138;BME280;29800;55.942;37.314;2023-05-21T01:17:34;100106.16;;;12.22;74.80
44138;BME280;29800;55.942;37.314;2023-05-21T01:20:01;100108.31;;;12.20;74.54
44138;BME280;29800;55.942;37.314;2023-05-21T01:22:34;100108.31;;;12.20;74.92
44138;BME280;29800;55.942;37.314;2023-05-21T01:25:00;100106.31;;;12.16;74.64
44138;BME280;29800;55.942;37.314;2023-05-21T01:27:30;100105.50;;;12.15;74.83
44138;BME280;29800;55.942;37.314;2023-05-21T01:29:56;100107.16;;;12.16;75.08
44138;BME280;29800;55.942;37.314;2023-05-21T01:35:03;100114.63;;;12.21;75.41
44138;BME280;29800;55.942;37.314;2023-05-21T01:37:36;100109.16;;;12.21;75.37
44138;BME280;29800;55.942;37.314;2023-05-21T01:40:22;100108.31;;;12.20;75.30
44138;BME280;29800;55.942;37.314;2023-05-21T01:42:51;100100.91;;;12.21;75.46
44138;BME280;29800;55.942;37.314;2023-05-21T01:45:17;100111.06;;;12.20;75.66
44138;BME280;29800;55.942;37.314;2023-05-21T01:47:46;100113.22;;;12.18;75.65
44138;BME280;29800;55.942;37.314;2023-05-21T01:50:14;100113.22;;;12.18;75.50
44138;BME280;29800;55.942;37.314;2023-05-21T01:52:54;100109.47;;;12.24;75.68
44138;BME280;29800;55.942;37.314;2023-05-21T01:55:26;100111.88;;;12.21;75.57
44138;BME280;29800;55.942;37.314;2023-05-21T01:57:54;100115.44;;;12.21;75.90
44138;BME280;29800;55.942;37.314;2023-05-21T02:00:22;100119.31;;;12.20;76.18
44138;BME280;29800;55.942;37.314;2023-05-21T02:02:49;100107.47;;;12.20;75.85
44138;BME280;29800;55.942;37.314;2023-05-21T02:05:17;100116.31;;;12.22;75.99
44138;BME280;29800;55.942;37.314;2023-05-21T02:07:44;100109.47;;;12.24;76.03
44138;BME280;29800;55.942;37.314;2023-05-21T02:10:11;100111.97;;;12.26;76.01
44138;BME280;29800;55.942;37.314;2023-05-21T02:12:37;100104.22;;;12.40;76.24
44138;BME280;29800;55.942;37.314;2023-05-21T02:15:04;100101.91;;;12.31;75.94
44138;BME280;29800;55.942;37.314;2023-05-21T02:17:32;100098.13;;;12.38;76.34
44138;BME280;29800;55.942;37.314;2023-05-21T02:20:00;100096.47;;;12.37;76.17
44138;BME280;29800;55.942;37.314;2023-05-21T02:22:48;100097.19;;;12.49;76.30
44138;BME280;29800;55.942;37.314;2023-05-21T02:25:16;100103.34;;;12.56;75.60
44138;BME280;29800;55.942;37.314;2023-05-21T02:27:43;100107.72;;;12.57;75.39
44138;BME280;29800;55.942;37.314;2023-05-21T02:30:14;100104.72;;;12.59;75.71
44138;BME280;29800;55.942;37.314;2023-05-21T02:32:41;100100.59;;;12.56;75.74
44138;BME280;29800;55.942;37.314;2023-05-21T02:35:10;100103.59;;;12.55;75.74
44138;BME280;29800;55.942;37.314;2023-05-21T02:37:37;100106.59;;;12.53;75.69
44138;BME280;29800;55.942;37.314;2023-05-21T02:40:05;100102.16;;;12.52;75.86
44138;BME280;29800;55.942;37.314;2023-05-21T02:42:35;100101.34;;;12.52;76.20
44138;BME280;29800;55.942;37.314;2023-05-21T02:45:02;100101.66;;;12.55;76.17
44138;BME280;29800;55.942;37.314;2023-05-21T02:47:33;100100.25;;;12.53;75.88
44138;BME280;29800;55.942;37.314;2023-05-21T02:50:00;100101.09;;;12.53;75.90
44138;BME280;29800;55.942;37.314;2023-05-21T02:52:31;100101.09;;;12.53;75.97
44138;BME280;29800;55.942;37.314;2023-05-21T02:54:57;100108.75;;;12.51;75.80
44138;BME280;29800;55.942;37.314;2023-05-21T02:57:23;100109.31;;;12.53;75.72
44138;BME280;29800;55.942;37.314;2023-05-21T02:59:50;100106.00;;;12.51;75.73
44138;BME280;29800;55.942;37.314;2023-05-21T03:02:17;100103.28;;;12.51;76.02
44138;BME280;29800;55.942;37.314;2023-05-21T03:04:43;100107.91;;;12.50;76.14
44138;BME280;29800;55.942;37.314;2023-05-21T03:07:13;100107.41;;;12.54;76.12
44138;BME280;29800;55.942;37.314;2023-05-21T03:09:40;100113.72;;;12.54;76.30
44138;BME280;29800;55.942;37.314;2023-05-21T03:12:08;100102.44;;;12.73;76.21
44138;BME280;29800;55.942;37.314;2023-05-21T03:14:35;100109.13;;;12.82;75.53
44138;BME280;29800;55.942;37.314;2023-05-21T03:17:02;100106.44;;;12.87;75.54
44138;BME280;29800;55.942;37.314;2023-05-21T03:19:33;100108.72;;;12.95;74.80
44138;BME280;29800;55.942;37.314;2023-05-21T03:22:02;100104.19;;;13.06;74.55
44138;BME280;29800;55.942;37.314;2023-05-21T03:24:31;100118.44;;;13.25;73.93
44138;BME280;29800;55.942;37.314;2023-05-21T03:27:00;100113.06;;;13.35;73.54
44138;BME280;29800;55.942;37.314;2023-05-21T03:29:27;100117.53;;;13.41;72.79
44138;BME280;29800;55.942;37.314;2023-05-21T03:31:54;100116.94;;;13.39;73.10
44138;BME280;29800;55.942;37.314;2023-05-21T03:34:21;100104.56;;;13.37;73.05
44138;BME280;29800;55.942;37.314;2023-05-21T03:36:49;100109.66;;;13.28;73.07
44138;BME280;29800;55.942;37.314;2023-05-21T03:39:18;100107.22;;;13.59;73.21
44138;BME280;29800;55.942;37.314;2023-05-21T03:41:44;100103.19;;;14.04;72.12
44138;BME280;29800;55.942;37.314;2023-05-21T03:44:18;100108.00;;;14.72;69.76
44138;BME280;29800;55.942;37.314;2023-05-21T03:46:55;100117.06;;;15.46;67.13
44138;BME280;29800;55.942;37.314;2023-05-21T03:49:25;100110.22;;;15.95;65.27
44138;BME280;29800;55.942;37.314;2023-05-21T03:51:54;100108.25;;;16.26;63.48
44138;BME280;29800;55.942;37.314;2023-05-21T03:54:21;100112.59;;;16.63;61.97
44138;BME280;29800;55.942;37.314;2023-05-21T03:56:50;100110.84;;;16.83;61.15
44138;BME280;29800;55.942;37.314;2023-05-21T03:59:17;100110.22;;;17.06;60.07
44138;BME280;29800;55.942;37.314;2023-05-21T04:01:44;100109.59;;;17.25;59.12
44138;BME280;29800;55.942;37.314;2023-05-21T04:04:13;100110.53;;;17.44;58.57
44138;BME280;29800;55.942;37.314;2023-05-21T04:06:40;100108.06;;;17.48;57.76
44138;BME280;29800;55.942;37.314;2023-05-21T04:09:08;100109.59;;;17.64;57.21
44138;BME280;29800;55.942;37.314;2023-05-21T04:11:36;100111.97;;;17.76;56.96
44138;BME280;29800;55.942;37.314;2023-05-21T04:14:04;100108.56;;;17.90;56.37
44138;BME280;29800;55.942;37.314;2023-05-21T04:16:31;100108.19;;;18.02;55.81
44138;BME280;29800;55.942;37.314;2023-05-21T04:19:00;100106.16;;;18.12;55.28
44138;BME280;29800;55.942;37.314;2023-05-21T04:21:28;100111.06;;;18.21;54.84
44138;BME280;29800;55.942;37.314;2023-05-21T04:23:57;100105.19;;;18.27;54.60
44138;BME280;29800;55.942;37.314;2023-05-21T04:26:44;100112.38;;;18.28;54.59
44138;BME280;29800;55.942;37.314;2023-05-21T04:29:11;100111.25;;;18.29;53.70
44138;BME280;29800;55.942;37.314;2023-05-21T04:31:38;100112.75;;;18.46;53.85
44138;BME280;29800;55.942;37.314;2023-05-21T04:34:04;100112.38;;;18.52;53.58
44138;BME280;29800;55.942;37.314;2023-05-21T04:36:31;100113.09;;;18.63;53.12
44138;BME280;29800;55.942;37.314;2023-05-21T04:38:58;100105.78;;;18.48;53.18
44138;BME280;29800;55.942;37.314;2023-05-21T04:41:25;100109.81;;;18.61;52.70
44138;BME280;29800;55.942;37.314;2023-05-21T04:43:51;100110.50;;;18.72;52.38
44138;BME280;29800;55.942;37.314;2023-05-21T04:46:23;100109.25;;;18.59;52.38
44138;BME280;29800;55.942;37.314;2023-05-21T04:48:53;100103.31;;;18.71;52.34
44138;BME280;29800;55.942;37.314;2023-05-21T04:51:23;100107.13;;;18.75;52.36
44138;BME280;29800;55.942;37.314;2023-05-21T04:53:51;100102.44;;;18.51;52.70
44138;BME280;29800;55.942;37.314;2023-05-21T04:56:19;100114.66;;;18.74;51.89
44138;BME280;29800;55.942;37.314;2023-05-21T04:58:47;100099.59;;;18.57;52.02
44138;BME280;29800;55.942;37.314;2023-05-21T05:01:14;100103.84;;;18.73;51.80
44138;BME280;29800;55.942;37.314;2023-05-21T05:03:41;100108.84;;;18.47;51.98
44138;BME280;29800;55.942;37.314;2023-05-21T05:06:07;100116.88;;;18.48;52.41
44138;BME280;29800;55.942;37.314;2023-05-21T05:08:34;100103.56;;;18.50;52.38
44138;BME280;29800;55.942;37.314;2023-05-21T05:11:01;100108.69;;;18.62;52.15
44138;BME280;29800;55.942;37.314;2023-05-21T05:13:28;100104.72;;;18.68;51.86
44138;BME280;29800;55.942;37.314;2023-05-21T05:15:57;100117.03;;;18.86;51.32
44138;BME280;29800;55.942;37.314;2023-05-21T05:18:26;100118.78;;;19.01;50.98
44138;BME280;29800;55.942;37.314;2023-05-21T05:20:53;100116.88;;;18.97;50.73
44138;BME280;29800;55.942;37.314;2023-05-21T05:23:20;100117.97;;;19.20;50.16
44138;BME280;29800;55.942;37.314;2023-05-21T05:25:46;100123.09;;;19.32;49.84
44138;BME280;29800;55.942;37.314;2023-05-21T05:28:12;100122.34;;;19.45;49.22
44138;BME280;29800;55.942;37.314;2023-05-21T05:30:39;100118.97;;;19.48;48.95
44138;BME280;29800;55.942;37.314;2023-05-21T05:33:18;100125.25;;;19.54;48.97
44138;BME280;29800;55.942;37.314;2023-05-21T05:35:45;100124.22;;;19.50;48.41
44138;BME280;29800;55.942;37.314;2023-05-21T05:38:12;100123.28;;;19.54;48.12
44138;BME280;29800;55.942;37.314;2023-05-21T05:40:38;100129.44;;;19.70;48.17
44138;BME280;29800;55.942;37.314;2023-05-21T05:43:05;100124.34;;;19.58;48.50
44138;BME280;29800;55.942;37.314;2023-05-21T05:45:32;100140.09;;;19.44;48.58
44138;BME280;29800;55.942;37.314;2023-05-21T05:47:58;100130.44;;;19.60;48.67
44138;BME280;29800;55.942;37.314;2023-05-21T05:50:26;100140.34;;;19.67;48.48
44138;BME280;29800;55.942;37.314;2023-05-21T05:52:52;100139.38;;;19.76;47.94
44138;BME280;29800;55.942;37.314;2023-05-21T05:55:18;100138.41;;;19.86;47.74
44138;BME280;29800;55.942;37.314;2023-05-21T05:57:46;100136.94;;;19.89;47.30
44138;BME280;29800;55.942;37.314;2023-05-21T06:00:16;100140.91;;;20.01;46.76
44138;BME280;29800;55.942;37.314;2023-05-21T06:02:47;100142.06;;;20.00;46.62
44138;BME280;29800;55.942;37.314;2023-05-21T06:05:14;100133.00;;;19.76;46.39
44138;BME280;29800;55.942;37.314;2023-05-21T06:07:40;100133.53;;;19.78;46.97
44138;BME280;29800;55.942;37.314;2023-05-21T06:10:07;100143.41;;;19.65;46.58
44138;BME280;29800;55.942;37.314;2023-05-21T06:12:35;100138.59;;;19.71;46.86
44138;BME280;29800;55.942;37.314;2023-05-21T06:15:02;100140.53;;;19.51;46.47
44138;BME280;29800;55.942;37.314;2023-05-21T06:17:34;100138.44;;;19.62;46.79
44138;BME280;29800;55.942;37.314;2023-05-21T06:20:03;100128.63;;;19.51;46.35
44138;BME280;29800;55.942;37.314;2023-05-21T06:22:34;100134.47;;;19.49;47.05
44138;BME280;29800;55.942;37.314;2023-05-21T06:25:03;100134.69;;;19.53;47.02
44138;BME280;29800;55.942;37.314;2023-05-21T06:27:32;100138.75;;;19.60;47.04
44138;BME280;29800;55.942;37.314;2023-05-21T06:30:00;100138.84;;;19.74;47.01
44138;BME280;29800;55.942;37.314;2023-05-21T06:32:26;100142.44;;;19.75;46.74
44138;BME280;29800;55.942;37.314;2023-05-21T06:34:53;100143.50;;;19.79;46.77
44138;BME280;29800;55.942;37.314;2023-05-21T06:37:20;100149.88;;;19.79;46.64
44138;BME280;29800;55.942;37.314;2023-05-21T06:39:50;100148.56;;;19.72;46.03
44138;BME280;29800;55.942;37.314;2023-05-21T06:42:16;100150.22;;;19.92;46.17
44138;BME280;29800;55.942;37.314;2023-05-21T06:44:51;100143.84;;;19.91;45.93
44138;BME280;29800;55.942;37.314;2023-05-21T06:47:37;100144.63;;;19.78;45.63
44138;BME280;29800;55.942;37.314;2023-05-21T06:50:03;100148.34;;;19.87;46.04
44138;BME280;29800;55.942;37.314;2023-05-21T06:52:31;100143.44;;;19.84;45.32
44138;BME280;29800;55.942;37.314;2023-05-21T06:55:00;100153.22;;;19.95;45.92
44138;BME280;29800;55.942;37.314;2023-05-21T06:57:31;100150.19;;;19.78;45.36
44138;BME280;29800;55.942;37.314;2023-05-21T06:59:57;100146.31;;;19.74;45.94
44138;BME280;29800;55.942;37.314;2023-05-21T07:02:24;100154.34;;;19.37;46.22
44138;BME280;29800;55.942;37.314;2023-05-21T07:04:51;100158.69;;;19.24;46.56
44138;BME280;29800;55.942;37.314;2023-05-21T07:07:19;100160.16;;;19.17;46.62
44138;BME280;29800;55.942;37.314;2023-05-21T07:09:45;100154.06;;;19.39;46.74
44138;BME280;29800;55.942;37.314;2023-05-21T07:12:11;100160.16;;;19.79;45.95
44138;BME280;29800;55.942;37.314;2023-05-21T07:14:38;100149.81;;;19.85;45.09
44138;BME280;29800;55.942;37.314;2023-05-21T07:17:04;100158.44;;;19.83;45.05
44138;BME280;29800;55.942;37.314;2023-05-21T07:19:30;100163.38;;;19.86;45.03
44138;BME280;29800;55.942;37.314;2023-05-21T07:21:57;100159.69;;;19.72;44.54
44138;BME280;29800;55.942;37.314;2023-05-21T07:24:24;100155.06;;;19.86;44.68
44138;BME280;29800;55.942;37.314;2023-05-21T07:26:52;100143.56;;;19.93;44.84
44138;BME280;29800;55.942;37.314;2023-05-21T07:29:19;100150.13;;;19.97;45.14
44138;BME280;29800;55.942;37.314;2023-05-21T07:31:46;100144.75;;;20.06;44.77
44138;BME280;29800;55.942;37.314;2023-05-21T07:34:13;100142.81;;;20.20;44.03
44138;BME280;29800;55.942;37.314;2023-05-21T07:36:40;100147.34;;;20.16;43.98
44138;BME280;29800;55.942;37.314;2023-05-21T07:39:06;100150.22;;;20.25;43.67
44138;BME280;29800;55.942;37.314;2023-05-21T07:41:33;100140.56;;;20.22;42.99
44138;BME280;29800;55.942;37.314;2023-05-21T07:44:04;100140.56;;;20.22;42.66
44138;BME280;29800;55.942;37.314;2023-05-21T07:46:33;100145.94;;;20.32;43.00
44138;BME280;29800;55.942;37.314;2023-05-21T07:49:00;100138.34;;;20.52;43.40
44138;BME280;29800;55.942;37.314;2023-05-21T07:51:26;100134.38;;;20.72;42.82
44138;BME280;29800;55.942;37.314;2023-05-21T07:53:53;100131.38;;;20.68;42.07
44138;BME280;29800;55.942;37.314;2023-05-21T07:56:25;100135.22;;;20.39;41.28
44138;BME280;29800;55.942;37.314;2023-05-21T07:58:52;100135.47;;;20.43;41.97
44138;BME280;29800;55.942;37.314;2023-05-21T08:01:18;100131.13;;;20.51;42.11
44138;BME280;29800;55.942;37.314;2023-05-21T08:03:46;100126.81;;;20.45;42.13
44138;BME280;29800;55.942;37.314;2023-05-21T08:06:13;100128.25;;;20.56;42.47
44138;BME280;29800;55.942;37.314;2023-05-21T08:08:39;100137.09;;;20.44;41.86
44138;BME280;29800;55.942;37.314;2023-05-21T08:11:05;100133.41;;;20.49;41.90
44138;BME280;29800;55.942;37.314;2023-05-21T08:13:33;100143.59;;;20.07;40.82
44138;BME280;29800;55.942;37.314;2023-05-21T08:16:02;100138.59;;;19.71;41.76
44138;BME280;29800;55.942;37.314;2023-05-21T08:18:29;100125.03;;;19.50;42.84
44138;BME280;29800;55.942;37.314;2023-05-21T08:20:56;100136.63;;;19.33;43.98
44138;BME280;29800;55.942;37.314;2023-05-21T08:23:24;100130.56;;;19.12;43.97
44138;BME280;29800;55.942;37.314;2023-05-21T08:25:54;100131.81;;;19.01;44.04
44138;BME280;29800;55.942;37.314;2023-05-21T08:28:21;100127.38;;;19.00;44.28
44138;BME280;29800;55.942;37.314;2023-05-21T08:30:48;100121.41;;;19.12;43.78
44138;BME280;29800;55.942;37.314;2023-05-21T08:33:16;100128.91;;;19.11;43.46
44138;BME280;29800;55.942;37.314;2023-05-21T08:35:43;100124.34;;;19.20;43.21
44138;BME280;29800;55.942;37.314;2023-05-21T08:38:29;100123.31;;;19.35;44.58
44138;BME280;29800;55.942;37.314;2023-05-21T08:40:59;100128.41;;;19.47;43.20
44138;BME280;29800;55.942;37.314;2023-05-21T08:43:26;100136.56;;;19.57;41.52
44138;BME280;29800;55.942;37.314;2023-05-21T08:45:54;100140.19;;;19.39;42.30
44138;BME280;29800;55.942;37.314;2023-05-21T08:48:24;100134.19;;;19.32;42.87
44138;BME280;29800;55.942;37.314;2023-05-21T08:50:52;100147.66;;;19.19;42.54
44138;BME280;29800;55.942;37.314;2023-05-21T08:53:31;100134.97;;;19.13;43.14
44138;BME280;29800;55.942;37.314;2023-05-21T08:55:58;100141.31;;;18.95;42.97
44138;BME280;29800;55.942;37.314;2023-05-21T08:58:48;100130.56;;;18.64;43.97
44138;BME280;29800;55.942;37.314;2023-05-21T09:01:19;100133.34;;;18.64;45.01
44138;BME280;29800;55.942;37.314;2023-05-21T09:03:51;100130.69;;;18.78;45.96
44138;BME280;29800;55.942;37.314;2023-05-21T09:06:22;100121.38;;;18.68;43.66
44138;BME280;29800;55.942;37.314;2023-05-21T09:08:58;100120.78;;;18.71;43.90
44138;BME280;29800;55.942;37.314;2023-05-21T09:11:42;100132.38;;;18.73;45.28
44138;BME280;29800;55.942;37.314;2023-05-21T09:14:10;100136.44;;;18.86;43.71
44138;BME280;29800;55.942;37.314;2023-05-21T09:17:00;100130.88;;;19.29;43.29
44138;BME280;29800;55.942;37.314;2023-05-21T09:19:27;100128.09;;;19.49;41.58
44138;BME280;29800;55.942;37.314;2023-05-21T09:22:00;100128.25;;;19.57;41.71
44138;BME280;29800;55.942;37.314;2023-05-21T09:24:29;100110.84;;;19.52;42.00
44138;BME280;29800;55.942;37.314;2023-05-21T09:26:57;100126.53;;;19.61;43.26
44138;BME280;29800;55.942;37.314;2023-05-21T09:29:26;100127.34;;;19.62;42.90
44138;BME280;29800;55.942;37.314;2023-05-21T09:31:53;100133.97;;;19.66;42.40
44138;BME280;29800;55.942;37.314;2023-05-21T09:34:21;100124.00;;;19.84;42.94
44138;BME280;29800;55.942;37.314;2023-05-21T09:36:49;100129.19;;;20.05;41.48
44138;BME280;29800;55.942;37.314;2023-05-21T09:39:29;100137.91;;;20.31;40.89
44138;BME280;29800;55.942;37.314;2023-05-21T09:41:59;100124.72;;;20.36;40.22
44138;BME280;29800;55.942;37.314;2023-05-21T09:44:26;100122.69;;;20.42;40.65
44138;BME280;29800;55.942;37.314;2023-05-21T09:46:56;100120.00;;;20.51;39.71
44138;BME280;29800;55.942;37.314;2023-05-21T09:49:24;100122.28;;;20.35;40.03
44138;BME280;29800;55.942;37.314;2023-05-21T09:51:58;100121.44;;;20.34;40.82
44138;BME280;29800;55.942;37.314;2023-05-21T09:54:30;100129.25;;;20.32;41.33
44138;BME280;29800;55.942;37.314;2023-05-21T09:56:59;100132.34;;;20.31;39.93
44138;BME280;29800;55.942;37.314;2023-05-21T09:59:40;100122.44;;;20.25;39.38
44138;BME280;29800;55.942;37.314;2023-05-21T10:02:18;100126.41;;;20.05;41.00
44138;BME280;29800;55.942;37.314;2023-05-21T10:04:50;100124.59;;;19.81;41.26
44138;BME280;29800;55.942;37.314;2023-05-21T10:07:18;100121.50;;;19.63;39.65
44138;BME280;29800;55.942;37.314;2023-05-21T10:09:53;100121.19;;;19.46;39.99
44138;BME280;29800;55.942;37.314;2023-05-21T10:12:23;100123.09;;;19.32;41.55
44138;BME280;29800;55.942;37.314;2023-05-21T10:14:59;100126.38;;;19.34;41.15
44138;BME280;29800;55.942;37.314;2023-05-21T10:17:27;100122.94;;;19.42;40.72
44138;BME280;29800;55.942;37.314;2023-05-21T10:19:55;100127.13;;;19.58;39.91
44138;BME280;29800;55.942;37.314;2023-05-21T10:22:25;100115.72;;;19.79;39.88
44138;BME280;29800;55.942;37.314;2023-05-21T10:24:52;100111.31;;;20.11;40.95
44138;BME280;29800;55.942;37.314;2023-05-21T10:27:19;100104.53;;;20.17;38.79
44138;BME280;29800;55.942;37.314;2023-05-21T10:29:47;100102.78;;;20.21;38.92
44138;BME280;29800;55.942;37.314;2023-05-21T10:32:15;100109.69;;;20.37;40.16
44138;BME280;29800;55.942;37.314;2023-05-21T10:34:45;100108.28;;;20.40;40.19
44138;BME280;29800;55.942;37.314;2023-05-21T10:37:12;100107.97;;;20.42;39.36
44138;BME280;29800;55.942;37.314;2023-05-21T10:39:39;100108.03;;;20.36;37.32
44138;BME280;29800;55.942;37.314;2023-05-21T10:42:23;100106.22;;;20.46;38.96
44138;BME280;29800;55.942;37.314;2023-05-21T10:45:20;100114.34;;;20.42;38.81
44138;BME280;29800;55.942;37.314;2023-05-21T10:50:56;100099.59;;;20.28;37.80
44138;BME280;29800;55.942;37.314;2023-05-21T10:53:42;100102.31;;;20.47;37.41
44138;BME280;29800;55.942;37.314;2023-05-21T10:56:16;100109.44;;;20.67;37.88
44138;BME280;29800;55.942;37.314;2023-05-21T11:01:40;100115.03;;;19.87;37.90
44138;BME280;29800;55.942;37.314;2023-05-21T11:04:07;100120.22;;;19.75;37.61
44138;BME280;29800;55.942;37.314;2023-05-21T11:06:33;100115.13;;;19.82;38.28
44138;BME280;29800;55.942;37.314;2023-05-21T11:09:20;100110.00;;;19.89;38.81
44138;BME280;29800;55.942;37.314;2023-05-21T11:11:56;100117.13;;;19.95;38.33
44138;BME280;29800;55.942;37.314;2023-05-21T11:14:30;100110.09;;;20.17;38.27
44138;BME280;29800;55.942;37.314;2023-05-21T11:17:35;100106.06;;;20.09;38.37
44138;BME280;29800;55.942;37.314;2023-05-21T11:20:07;100104.69;;;19.93;38.37
44138;BME280;29800;55.942;37.314;2023-05-21T11:22:34;100104.75;;;19.69;38.28
44138;BME280;29800;55.942;37.314;2023-05-21T11:25:02;100102.75;;;19.55;38.74
44138;BME280;29800;55.942;37.314;2023-05-21T11:27:33;100110.47;;;19.39;39.46
44138;BME280;29800;55.942;37.314;2023-05-21T11:30:21;100106.66;;;19.35;39.67
44138;BME280;29800;55.942;37.314;2023-05-21T11:38:09;100099.88;;;18.84;39.87
44138;BME280;29800;55.942;37.314;2023-05-21T11:40:36;100095.59;;;18.68;39.75
44138;BME280;29800;55.942;37.314;2023-05-21T11:43:02;100096.25;;;18.60;40.17
44138;BME280;29800;55.942;37.314;2023-05-21T11:45:30;100096.97;;;18.46;40.83
44138;BME280;29800;55.942;37.314;2023-05-21T11:47:59;100102.00;;;18.39;41.22
44138;BME280;29800;55.942;37.314;2023-05-21T11:50:26;100105.75;;;18.24;41.57
44138;BME280;29800;55.942;37.314;2023-05-21T11:52:55;100102.25;;;18.13;42.02
44138;BME280;29800;55.942;37.314;2023-05-21T11:55:23;100101.88;;;18.25;42.51
44138;BME280;29800;55.942;37.314;2023-05-21T11:57:53;100109.63;;;18.23;42.63
44138;BME280;29800;55.942;37.314;2023-05-21T12:00:20;100110.00;;;18.16;41.70
44138;BME280;29800;55.942;37.314;2023-05-21T12:02:50;100112.69;;;18.22;42.63
44138;BME280;29800;55.942;37.314;2023-05-21T12:05:17;100116.09;;;18.13;42.86
44138;BME280;29800;55.942;37.314;2023-05-21T12:07:47;100109.16;;;18.16;41.83
44138;BME280;29800;55.942;37.314;2023-05-21T12:10:15;100113.09;;;18.10;42.00
44138;BME280;29800;55.942;37.314;2023-05-21T12:12:42;100102.22;;;17.89;42.92
44138;BME280;29800;55.942;37.314;2023-05-21T12:15:09;100106.34;;;17.87;43.44
44138;BME280;29800;55.942;37.314;2023-05-21T12:17:36;100115.63;;;17.72;44.22
44138;BME280;29800;55.942;37.314;2023-05-21T12:20:04;100116.22;;;17.63;44.80
44138;BME280;29800;55.942;37.314;2023-05-21T12:22:33;100118.22;;;17.53;44.37
44138;BME280;29800;55.942;37.314;2023-05-21T12:24:59;100119.97;;;17.43;44.37
44138;BME280;29800;55.942;37.314;2023-05-21T12:27:27;100115.00;;;17.40;43.87
44138;BME280;29800;55.942;37.314;2023-05-21T12:29:53;100121.94;;;17.38;45.13
44138;BME280;29800;55.942;37.314;2023-05-21T12:32:20;100116.19;;;17.29;44.65
44138;BME280;29800;55.942;37.314;2023-05-21T12:34:48;100121.50;;;17.20;45.23
44138;BME280;29800;55.942;37.314;2023-05-21T12:37:17;100134.50;;;17.15;46.07
44138;BME280;29800;55.942;37.314;2023-05-21T12:39:46;100135.63;;;17.14;47.17
44138;BME280;29800;55.942;37.314;2023-05-21T12:42:13;100130.69;;;17.05;46.32
44138;BME280;29800;55.942;37.314;2023-05-21T12:44:43;100132.38;;;17.01;46.94
44138;BME280;29800;55.942;37.314;2023-05-21T12:47:10;100129.91;;;16.95;46.62
44138;BME280;29800;55.942;37.314;2023-05-21T12:49:41;100136.81;;;16.92;46.05
44138;BME280;29800;55.942;37.314;2023-05-21T12:52:11;100131.31;;;16.87;46.71
44138;BME280;29800;55.942;37.314;2023-05-21T12:54:39;100138.50;;;16.88;46.57
44138;BME280;29800;55.942;37.314;2023-05-21T12:57:16;100129.59;;;17.01;46.22
44138;BME280;29800;55.942;37.314;2023-05-21T12:59:49;100136.22;;;17.00;46.02
44138;BME280;29800;55.942;37.314;2023-05-21T13:02:22;100126.03;;;16.96;45.67
44138;BME280;29800;55.942;37.314;2023-05-21T13:05:00;100123.28;;;16.96;45.49